ENHM

Heimdal Oilp

Heimdal Oilp, Norway
METAR ENHM 211320Z 27013KT 9999 FEW012 BKN017 14/11 Q1011 W15/S3
Observed Flight Rules
Jul-21 @ 13:20 UTC (33 minutes ago) Marginal Visual Flight Rules
Wind Visibility Clouds
270° at 13 knots 10,000+ meters
  • Few at 1,200' AGL
  • Broken at 1,700' AGL
Temperatures Readings
Current 14°C / 57°F
Dewpoint 11°C / 52°F
Humidity 82%
Altimeter 29.85" Hg
Pressure 1011 hPa
Elevation 10
METAR ENHM 211320Z 27013KT 9999 FEW012 BKN017 14/11 Q1011 W15/S3
Observed Flight Rules
Jul-21 @ 13:20 UTC
(33 minutes ago)
MVFR
Wind Visibility
270° at 13 knots 10,000+ meters
Clouds
  • Few at 1,200' AGL
  • Broken at 1,700' AGL
Temperature Dewpoint
14°C / 57°F 11°C / 52°F
Humidity Altimeter Pressure
82% 29.85" Hg 1011 hPa